Airfield :
LOGIN :

Register | Disclaimer

   EN    FR    IT 

 










Legend :    VFR   Marginal VFR   IFR   Intensive IFR   Very Intensive IFR
Visi :
Ceiling :
>= 8 km
>= 3000ft
5 to 8 km
1000 to 3000 ft
1500m to 5 km
500 to 1000 ft
800 to 1500m
200 to 500 ft
< 800m
< 200 ft
Symbols :   Thunderstorms  Fog  Heavy snow  Heavy precipitations  Wind > 20 kt
SIGMETs :     Misc.  Thunderstorms  Icing  Turbulence  Mountain Waves  Volcanic Ashes







- Airport Elevation : 459 ft
- IATA code : CER
- Download approach charts


LFRC - Cherbourg / Maupertus

CURRENT METAR :
  • 181200Z AUTO 24008KT CAVOK 10/06 Q1026 NOSIG

EXPIRED METARs :
  • 181130Z AUTO 24008KT 9999 FEW022 BKN190 10/06 Q1026 NOSIG
  • 181100Z AUTO 27009KT 9999 BKN027 10/05 Q1026 NOSIG
  • 181030Z AUTO 27007KT 9999 BKN029 10/05 Q1026 NOSIG
  • 181000Z AUTO 26006KT CAVOK 10/05 Q1026 NOSIG
  • 180930Z AUTO 22004KT CAVOK 09/05 Q1026 NOSIG

TAF TAF LFRC
Valid from the 18 at 12:00 until the 18 at 21:00 UTC


181100Z 1812/1821 27010KT 9999 BKN030
BECMG 1816/1818 BKN015
TEMPO 1816/1821 27015G25KT 5000 RA
PROB30
TEMPO 1819/1821 3000 RADZ BKN008
No reported NOTAMs for that airfield.



MET'MAP, your aeronautical weather chart ! - Copyright ORBIFLY December 2007 - Disclaimer

ORBIFLY MET'MAP TEAM :

Programming & Development : Alexandra Zaïnal
Concept & Development : Baudouin d'Aumeries
Co-Development & Prog : Marc-Olivier Méhu
Technical & hardware support : Manuel Goepfert

Contact : metmap@orbifly.com




SOURCES & CREDITS :

   NOAA